Latest Weather Observations for Laverton

IDW60801

Issued at 6:02 pm WST Tuesday 28 July 2015 (issued every 30 minutes, with the page automatically refreshed every 10 minutes)

About weather observations | Map of weather stations | Latest weather observations for WA | Other Formats
Station Details ID: 012305 Name: LAVERTON AERO Lat: -28.61 Lon: 122.42 Height: 464.3 m
Data from the previous 72 hours. | See also: Recent months at Laverton
Date/Time
WST
Temp
°C
App
Temp
°C
Dew
Point
Rel
Hum
%
Delta-T
°C
Wind Press
QNH
hPa
Press
MSL
hPa
Rain
since 9 am
mm
Dir
 
Spd
km/h
Gust
km/h
Spd
kts
Gust
kts
28/06:00pm 20.8 16.8 4.8 35 8.0 NNE 15 19 8 10 1022.0 1021.8 0.0
28/05:30pm 21.2 17.9 4.7 34 8.2 N 11 13 6 7 1022.2 1022.0 0.0
28/05:00pm 21.7 18.0 4.3 32 8.6 N 13 17 7 9 1022.0 1021.8 0.0
28/04:30pm 22.0 17.0 4.6 32 8.7 N 20 28 11 15 1021.8 1021.6 0.0
28/04:00pm 22.0 16.9 4.1 31 8.9 N 20 30 11 16 1021.6 1021.4 0.0
28/03:30pm 22.8 17.0 4.3 30 9.3 N 24 35 13 19 1021.9 1021.7 0.0
28/03:00pm 22.5 17.0 4.1 30 9.2 NNW 22 30 12 16 1022.2 1022.0 0.0
28/02:30pm 22.8 16.9 3.9 29 9.4 NNW 24 35 13 19 1022.2 1022.0 0.0
28/02:00pm 22.5 16.5 3.6 29 9.3 NNW 24 35 13 19 1022.4 1022.3 0.0
28/01:30pm 21.8 15.7 3.0 29 9.2 N 24 33 13 18 1022.8 1022.7 0.0
28/01:00pm 21.5 15.0 2.7 29 9.0 N 26 32 14 17 1023.5 1023.3 0.0
28/12:30pm 20.3 13.3 2.2 30 8.6 N 28 37 15 20 1023.9 1023.7 0.0
28/12:00pm 19.0 12.5 2.4 33 7.8 N 26 35 14 19 1024.8 1024.7 0.0
28/11:30am 18.1 10.5 2.8 36 7.2 N 32 43 17 23 1025.4 1025.3 0.0
28/11:00am 17.2 9.5 2.4 37 6.8 N 32 43 17 23 1026.5 1026.4 0.0
28/10:30am 16.2 9.7 2.9 41 6.2 NNE 26 35 14 19 1027.0 1026.9 0.0
28/10:00am 16.3 9.8 2.7 40 6.3 NNE 26 35 14 19 1027.6 1027.5 0.0
28/09:30am 15.5 7.9 2.7 42 5.9 NNE 32 39 17 21 1027.7 1027.6 0.0
28/09:00am 13.9 8.8 2.8 47 5.0 N 19 28 10 15 1028.6 1028.5 0.0
28/08:30am 11.8 5.7 2.5 53 4.1 NNE 24 32 13 17 1028.6 1028.5 0.0
28/08:00am 10.7 5.5 2.5 57 3.6 NNE 19 24 10 13 1028.4 1028.3 0.0
28/07:30am 9.2 3.9 2.1 61 3.0 NNE 19 24 10 13 1028.5 1028.4 0.0
28/07:00am 8.1 3.9 1.9 65 2.6 NNE 13 17 7 9 1028.6 1028.5 0.0
28/06:30am 8.3 4.1 1.9 64 2.7 NNE 13 19 7 10 1028.4 1028.3 0.0
28/06:00am 9.1 2.9 2.0 61 3.0 NNE 24 30 13 16 1028.1 1028.0 0.0
28/05:30am 9.6 4.1 2.0 59 3.3 NNE 20 28 11 15 1027.6 1027.5 0.0
28/05:00am 9.1 3.8 2.0 61 3.0 NE 19 24 10 13 1027.3 1027.2 0.0
28/04:30am 8.4 2.5 1.8 63 2.8 ENE 22 30 12 16 1027.2 1027.1 0.0
28/04:00am 8.3 2.8 1.9 64 2.7 ENE 20 28 11 15 1027.6 1027.5 0.0
28/03:30am 8.1 2.6 2.1 66 2.6 ENE 20 26 11 14 1028.1 1028.0 0.0
28/03:00am 7.9 2.6 2.0 66 2.5 ENE 19 24 10 13 1028.5 1028.4 0.0
28/02:30am 8.3 3.4 2.1 65 2.6 ENE 17 20 9 11 1028.9 1028.8 0.0
28/02:00am 8.6 3.7 2.2 64 2.7 ENE 17 20 9 11 1029.1 1029.0 0.0
28/01:30am 8.5 3.3 2.3 65 2.7 ENE 19 24 10 13 1029.1 1029.0 0.0
28/01:00am 8.5 3.6 2.3 65 2.6 ENE 17 20 9 11 1029.3 1029.2 0.0
28/12:30am 8.4 3.6 2.4 66 2.6 ENE 17 22 9 12 1029.2 1029.1 0.0
28/12:00am 8.1 3.3 2.6 68 2.4 ENE 17 22 9 12 1029.5 1029.4 0.0
 
Date/Time
WST
Temp
°C
App
Temp
°C
Dew
Point
Rel
Hum
%
Delta-T
°C
Wind Press
QNH
hPa
Press
MSL
hPa
Rain
since 9 am
mm
Dir
 
Spd
km/h
Gust
km/h
Spd
kts
Gust
kts
27/11:30pm 7.6 2.8 2.5 70 2.2 ENE 17 19 9 10 1029.7 1029.7 0.0
27/11:00pm 7.2 2.3 2.1 70 2.1 E 17 19 9 10 1030.0 1030.0 0.0
27/10:30pm 7.3 2.8 2.0 69 2.2 E 15 17 8 9 1030.5 1030.4 0.0
27/10:00pm 7.9 3.4 2.2 67 2.4 E 15 17 8 9 1030.7 1030.6 0.0
27/09:30pm 7.8 4.1 2.1 67 2.4 E 11 13 6 7 1030.9 1030.8 0.0
27/09:00pm 9.0 4.9 2.3 63 2.9 E 13 13 7 7 1030.9 1030.8 0.0
27/08:30pm 9.9 6.6 2.5 60 3.2 E 9 11 5 6 1030.8 1030.7 0.0
27/08:00pm 10.7 6.6 2.5 57 3.6 E 13 17 7 9 1030.5 1030.4 0.0
27/07:30pm 11.2 7.1 2.5 55 3.9 E 13 13 7 7 1030.4 1030.3 0.0
27/07:00pm 12.4 8.8 2.8 52 4.3 ENE 11 15 6 8 1030.0 1030.0 0.0
27/06:30pm 13.2 9.1 2.4 48 4.8 ENE 13 19 7 10 1029.3 1029.2 0.0
27/06:00pm 14.0 9.2 2.6 46 5.1 ENE 17 20 9 11 1028.7 1028.6 0.0
27/05:30pm 14.9 10.4 2.4 43 5.7 ENE 15 20 8 11 1029.5 1029.4 0.0
27/05:00pm 15.7 10.5 2.5 41 6.0 ENE 19 24 10 13 1029.4 1029.3 0.0
27/04:30pm 16.1 11.0 2.9 41 6.1 ENE 19 26 10 14 1029.5 1029.4 0.0
27/04:00pm 16.5 11.1 2.5 39 6.4 ENE 20 28 11 15 1029.8 1029.8 0.0
27/03:30pm 17.2 11.6 3.5 40 6.5 E 22 30 12 16 1030.0 1030.0 0.0
27/03:00pm 17.0 12.3 3.3 40 6.4 ENE 17 28 9 15 1030.4 1030.3 0.0
27/02:30pm 16.8 11.8 3.5 41 6.3 E 19 28 10 15 1030.5 1030.4 0.0
27/02:00pm 16.6 12.0 3.6 42 6.1 ENE 17 26 9 14 1030.7 1030.6 0.0
27/01:30pm 16.9 12.8 4.3 43 6.1 ENE 15 24 8 13 1031.0 1030.9 0.0
27/01:00pm 16.8 12.5 3.5 41 6.3 ENE 15 22 8 12 1031.6 1031.6 0.0
27/12:30pm 15.8 10.2 3.3 43 5.9 NNE 22 35 12 19 1032.0 1032.0 0.0
27/12:00pm 16.0 10.5 4.1 45 5.6 ENE 22 33 12 18 1032.8 1032.7 0.0
27/11:30am 16.0 10.2 4.4 46 5.6 NE 24 35 13 19 1032.9 1032.8 0.0
27/11:00am 14.8 8.6 4.2 49 5.0 NE 26 35 14 19 1032.7 1032.6 0.0
27/10:30am 14.6 8.1 4.9 52 4.7 NE 28 35 15 19 1033.3 1033.2 0.0
27/10:00am 14.1 7.4 5.5 56 4.1 NE 30 39 16 21 1034.1 1034.1 0.0
27/09:30am 12.6 6.3 5.5 62 3.4 NE 28 44 15 24 1034.0 1034.0 0.0
27/09:00am 11.4 5.0 5.3 66 2.9 ENE 28 39 15 21 1033.9 1033.9 0.0
27/08:30am 10.2 5.2 4.6 68 2.6 ENE 20 30 11 16 1034.5 1034.5 0.0
27/08:00am 8.7 4.2 4.1 73 2.0 ENE 17 24 9 13 1034.3 1034.3 0.0
27/07:30am 6.7 1.7 3.7 81 1.3 E 19 22 10 12 1034.0 1034.0 0.0
27/07:00am 5.3 0.6 3.2 86 0.9 E 17 20 9 11 1033.6 1033.6 0.0
27/06:30am 4.7 0.3 2.7 87 0.8 E 15 17 8 9 1033.1 1033.0 0.0
27/06:00am 5.4 0.7 2.9 84 1.0 E 17 19 9 10 1032.9 1032.8 0.0
27/05:30am 5.7 0.6 3.0 83 1.1 ENE 19 20 10 11 1032.6 1032.5 0.0
27/05:00am 5.2 0.5 2.9 85 1.0 E 17 20 9 11 1032.2 1032.2 0.0
27/04:30am 4.6 -0.2 2.5 86 0.9 E 17 19 9 10 1032.0 1032.0 0.0
27/04:00am 4.9 0.5 2.6 85 1.0 E 15 17 8 9 1032.2 1032.2 0.0
27/03:30am 5.0 0.9 2.5 84 1.0 E 13 13 7 7 1032.2 1032.2 0.0
27/03:00am 5.2 1.2 2.6 83 1.1 E 13 15 7 8 1032.2 1032.2 0.0
27/02:30am 5.2 1.1 2.4 82 1.2 ENE 13 15 7 8 1032.1 1032.1 0.0
27/02:00am 5.4 1.3 2.2 80 1.3 E 13 13 7 7 1032.1 1032.1 0.0
27/01:30am 6.2 2.2 2.7 78 1.5 E 13 17 7 9 1032.5 1032.4 0.0
27/01:00am 6.4 2.0 2.7 77 1.6 E 15 17 8 9 1032.6 1032.5 0.0
27/12:30am 6.6 2.5 2.5 75 1.7 E 13 15 7 8 1032.9 1032.8 0.0
27/12:00am 7.5 3.5 2.8 72 2.0 E 13 15 7 8 1032.9 1032.8 0.0
 
Date/Time
WST
Temp
°C
App
Temp
°C
Dew
Point
Rel
Hum
%
Delta-T
°C
Wind Press
QNH
hPa
Press
MSL
hPa
Rain
since 9 am
mm
Dir
 
Spd
km/h
Gust
km/h
Spd
kts
Gust
kts
26/11:30pm 7.7 3.7 2.6 70 2.2 E 13 15 7 8 1032.8 1032.7 0.0
26/11:00pm 8.8 4.8 2.8 66 2.6 E 13 17 7 9 1032.7 1032.6 0.0
26/10:30pm 9.7 5.0 3.2 64 2.9 E 17 20 9 11 1032.3 1032.3 0.0
26/10:00pm 9.5 5.1 2.8 63 2.9 ENE 15 17 8 9 1032.3 1032.3 0.0
26/09:30pm 10.9 6.2 3.2 59 3.5 E 17 20 9 11 1032.5 1032.4 0.0
26/09:00pm 11.4 7.1 3.4 58 3.6 ESE 15 19 8 10 1032.5 1032.4 0.0
26/08:30pm 9.8 6.1 2.6 61 3.2 ESE 11 15 6 8 1032.3 1032.3 0.0
26/08:00pm 9.7 5.7 2.6 61 3.1 E 13 13 7 7 1032.2 1032.2 0.0
26/07:30pm 10.6 7.3 2.4 57 3.6 ESE 9 13 5 7 1032.1 1032.1 0.0
26/07:00pm 11.9 8.3 2.9 54 4.0 ESE 11 13 6 7 1031.9 1031.9 0.0
26/06:30pm 12.8 9.2 2.9 51 4.5 ESE 11 13 6 7 1031.5 1031.5 0.0
26/06:00pm 14.3 10.7 3.2 47 5.1 ESE 11 15 6 8 1030.9 1030.8 0.0
26/05:30pm 15.3 11.3 2.8 43 5.8 ESE 13 17 7 9 1030.4 1030.3 0.0
26/05:00pm 16.2 12.2 2.9 41 6.1 ESE 13 20 7 11 1030.2 1030.1 0.0
26/04:30pm 16.6 11.8 2.6 39 6.5 ESE 17 24 9 13 1029.9 1029.9 0.0
26/04:00pm 17.2 12.5 3.1 39 6.6 E 17 24 9 13 1029.7 1029.7 0.0
26/03:30pm 17.5 13.9 3.0 38 6.8 ESE 11 20 6 11 1029.8 1029.8 0.0
26/03:00pm 17.3 12.9 2.9 38 6.7 SE 15 22 8 12 1029.5 1029.4 0.0
26/02:30pm 17.2 13.1 2.4 37 6.9 E 13 20 7 11 1029.6 1029.6 0.0
26/02:00pm 17.4 13.5 3.3 39 6.6 E 13 20 7 11 1029.6 1029.6 0.0
26/01:30pm 16.7 12.4 3.0 40 6.4 E 15 22 8 12 1029.7 1029.7 0.0
26/01:00pm 17.4 13.9 3.3 39 6.6 E 11 19 6 10 1029.8 1029.8 0.0
26/12:30pm 16.7 12.4 3.0 40 6.4 ESE 15 24 8 13 1030.2 1030.1 0.0
26/12:00pm 16.2 11.3 3.9 44 5.8 ENE 19 30 10 16 1030.7 1030.6 0.0
26/11:30am 16.0 11.5 4.1 45 5.7 E 17 24 9 13 1030.9 1030.8 0.0
26/11:00am 14.5 10.3 3.6 48 5.0 ESE 15 24 8 13 1031.3 1031.2 0.0
26/10:30am 15.0 10.5 4.1 48 5.2 ESE 17 22 9 12 1031.3 1031.2 0.0
26/10:00am 13.9 9.5 2.8 47 5.0 E 15 19 8 10 1031.6 1031.6 0.0
26/09:30am 13.0 9.0 3.1 51 4.5 E 13 19 7 10 1031.8 1031.8 0.0
26/09:00am 11.2 7.6 2.8 56 3.7 ESE 11 15 6 8 1031.6 1031.6 0.0
26/08:30am 9.6 5.6 2.9 63 3.0 SE 13 17 7 9 1031.4 1031.3 0.0
26/08:00am 6.9 3.6 2.4 73 1.9 SE 9 13 5 7 1031.1 1031.0 0.0
26/07:30am 3.9 0.9 0.9 81 1.2 ESE 6 7 3 4 1030.8 1030.7 0.0
26/07:00am 1.1 -2.4 -1.0 86 0.8 ESE 7 9 4 5 1030.6 1030.5 0.0
26/06:30am 0.2 -2.0 -1.7 87 0.7 CALM 0 0 0 0 1030.3 1030.2 0.0
26/06:00am 0.4 -3.0 -1.7 86 0.8 E 6 7 3 4 1029.9 1029.9 0.0
26/05:30am 0.4 -3.1 -1.7 86 0.8 E 7 9 4 5 1029.6 1029.6 0.0
26/05:00am 0.7 -2.6 -1.4 86 0.8 ENE 6 7 3 4 1029.2 1029.1 0.0
26/04:30am 0.9 -2.6 -1.5 84 0.9 ENE 7 9 4 5 1029.0 1028.9 0.0
26/04:00am 1.0 -2.9 -1.4 84 0.9 ENE 9 11 5 6 1028.8 1028.7 0.0
26/03:30am 1.1 -1.5 -1.5 83 0.9 ENE 2 9 1 5 1028.8 1028.7 0.0
26/03:00am 1.4 -0.8 -1.3 82 1.0 CALM 0 0 0 0 1028.8 1028.7 0.0
26/02:30am 2.6 -0.8 -0.3 81 1.1 WSW 7 11 4 6 1028.8 1028.7 0.0
26/02:00am 2.3 0.2 -0.8 80 1.1 CALM 0 0 0 0 1028.8 1028.7 0.0
26/01:30am 2.0 -1.3 -1.1 80 1.1 N 6 7 3 4 1028.8 1028.7 0.0
26/01:00am 2.1 -0.1 -1.2 79 1.2 CALM 0 0 0 0 1028.8 1028.7 0.0
26/12:30am 3.1 1.0 -0.7 76 1.4 CALM 0 0 0 0 1028.7 1028.6 0.0
26/12:00am 3.0 -0.4 -0.6 77 1.3 N 7 9 4 5 1028.7 1028.6 0.0
 
Date/Time
WST
Temp
°C
App
Temp
°C
Dew
Point
Rel
Hum
%
Delta-T
°C
Wind Press
QNH
hPa
Press
MSL
hPa
Rain
since 9 am
mm
Dir
 
Spd
km/h
Gust
km/h
Spd
kts
Gust
kts
25/11:30pm 3.0 0.9 -1.0 75 1.5 CALM 0 0 0 0 1028.7 1028.6 0.0
25/11:00pm 3.9 1.8 -0.5 73 1.7 CALM 0 0 0 0 1028.6 1028.5 0.0
25/10:30pm 3.9 0.7 -0.5 73 1.7 ESE 6 7 3 4 1028.5 1028.4 0.0
25/10:00pm 4.7 1.5 -0.3 70 1.9 SE 6 7 3 4 1028.3 1028.2 0.0
25/09:30pm 5.2 3.2 0.0 69 2.0 CALM 0 0 0 0 1028.1 1028.0 0.0
25/09:00pm 7.5 4.3 0.9 63 2.7 SSE 7 11 4 6 1027.9 1027.8 0.0
25/08:30pm 7.8 3.9 1.0 62 2.8 S 11 15 6 8 1027.7 1027.6 0.0
25/08:00pm 7.5 5.6 0.7 62 2.8 CALM 0 0 0 0 1027.5 1027.4 0.0
25/07:30pm 9.3 5.8 1.2 57 3.4 SSW 9 11 5 6 1027.3 1027.2 0.0
25/07:00pm 9.1 6.1 0.8 56 3.4 SSW 6 7 3 4 1027.1 1027.0 0.0
25/06:30pm 10.8 7.3 1.1 51 4.1 SSW 9 9 5 5 1026.8 1026.7 0.0

Other Formats:

Comma delimited format used in spreadsheet applications
http://www.bom.gov.au/fwo/IDW60801/IDW60801.94449.axf

JavaScript Object Notation format (JSON) in row-major order
http://www.bom.gov.au/fwo/IDW60801/IDW60801.94449.json